createdAt,value
2019-03-25T00:01:09.060Z,15.53
2019-03-25T00:03:39.143Z,15.27
2019-03-25T00:06:08.025Z,13.83
2019-03-25T00:08:38.260Z,14.57
2019-03-25T00:11:07.246Z,15.67
2019-03-25T00:13:36.237Z,14.47
2019-03-25T00:16:05.031Z,16.57
2019-03-25T00:18:33.888Z,14.33
2019-03-25T00:21:02.369Z,13.70
2019-03-25T00:23:31.299Z,15.30
2019-03-25T00:25:59.999Z,14.70
2019-03-25T00:28:28.932Z,17.17
2019-03-25T00:30:57.852Z,19.27
2019-03-25T00:33:32.710Z,16.20
2019-03-25T00:36:01.805Z,15.47
2019-03-25T00:38:30.518Z,15.37
2019-03-25T00:40:59.455Z,16.50
2019-03-25T00:43:28.391Z,16.80
2019-03-25T00:45:56.787Z,15.43
2019-03-25T00:48:25.720Z,15.97
2019-03-25T00:50:54.123Z,17.93
2019-03-25T00:53:22.863Z,16.63
2019-03-25T00:55:51.671Z,17.03
2019-03-25T00:58:20.648Z,16.93
2019-03-25T01:00:49.507Z,15.80
2019-03-25T01:03:18.050Z,16.83
2019-03-25T01:05:46.819Z,16.43
2019-03-25T01:08:15.945Z,15.00
2019-03-25T01:10:44.376Z,14.50
2019-03-25T01:13:13.371Z,15.70
2019-03-25T01:15:41.880Z,14.57
2019-03-25T01:18:16.727Z,16.63
2019-03-25T01:21:00.131Z,14.47
2019-03-25T01:23:29.339Z,16.20
2019-03-25T01:25:58.245Z,14.83
2019-03-25T01:28:26.995Z,14.70
2019-03-25T01:30:55.850Z,14.93
2019-03-25T01:33:24.706Z,16.00
2019-03-25T01:35:53.671Z,14.77
2019-03-25T01:38:22.565Z,15.20
2019-03-25T01:40:51.280Z,15.63
2019-03-25T01:43:20.215Z,15.43
2019-03-25T01:45:48.951Z,14.83
2019-03-25T01:48:18.035Z,13.63
2019-03-25T01:50:46.659Z,15.00
2019-03-25T01:53:15.535Z,15.70
2019-03-25T01:55:44.558Z,15.70
2019-03-25T01:58:13.418Z,16.37
2019-03-25T02:00:42.497Z,13.60
2019-03-25T02:03:11.202Z,15.13
2019-03-25T02:05:40.080Z,15.00
2019-03-25T02:08:09.010Z,13.80
2019-03-25T02:10:37.864Z,14.80
2019-03-25T02:13:06.523Z,17.03
2019-03-25T02:15:35.420Z,14.87
2019-03-25T02:18:04.016Z,15.27
2019-03-25T02:20:32.602Z,16.73
2019-03-25T02:23:01.283Z,16.30
2019-03-25T02:25:30.404Z,15.17
2019-03-25T02:27:59.011Z,17.17
2019-03-25T02:30:27.581Z,18.87
2019-03-25T02:32:55.996Z,17.23
2019-03-25T02:35:24.837Z,18.13
2019-03-25T02:37:53.663Z,18.50
2019-03-25T02:40:22.481Z,18.90
2019-03-25T02:42:51.224Z,18.47
2019-03-25T02:45:19.889Z,18.90
2019-03-25T02:47:48.416Z,19.37
2019-03-25T02:50:17.388Z,19.83
2019-03-25T02:52:45.872Z,21.20
2019-03-25T02:55:14.805Z,22.93
2019-03-25T02:57:43.662Z,20.13
2019-03-25T03:00:12.936Z,20.17
2019-03-25T03:02:41.436Z,18.97
2019-03-25T03:05:10.484Z,19.30
2019-03-25T03:07:39.524Z,18.87
2019-03-25T03:10:08.577Z,19.07
2019-03-25T03:12:37.040Z,18.63
2019-03-25T03:15:06.181Z,19.73
2019-03-25T03:17:35.185Z,18.07
2019-03-25T03:20:04.203Z,19.37
2019-03-25T03:22:32.927Z,21.13
2019-03-25T03:25:01.532Z,21.40
2019-03-25T03:27:30.482Z,20.10
2019-03-25T03:29:59.422Z,19.23
2019-03-25T03:32:28.436Z,19.93
2019-03-25T03:34:57.268Z,22.93
2019-03-25T03:37:26.034Z,19.47
2019-03-25T03:39:54.803Z,20.23
2019-03-25T03:42:23.767Z,19.37
2019-03-25T03:44:52.216Z,20.27
2019-03-25T03:47:21.078Z,19.97
2019-03-25T03:49:50.072Z,19.40
2019-03-25T03:52:19.256Z,20.23
2019-03-25T03:54:48.284Z,20.20
2019-03-25T03:57:16.790Z,19.87
2019-03-25T03:59:45.708Z,21.87
2019-03-25T04:02:14.600Z,19.07
2019-03-25T04:04:43.007Z,19.20
2019-03-25T04:07:11.656Z,18.93
2019-03-25T04:09:40.059Z,19.67
2019-03-25T04:12:08.641Z,19.60
2019-03-25T04:14:37.472Z,19.40
2019-03-25T04:17:06.126Z,19.77
2019-03-25T04:19:34.734Z,20.10
2019-03-25T04:22:03.496Z,20.90
2019-03-25T04:24:32.048Z,20.63
2019-03-25T04:27:00.793Z,19.83
2019-03-25T04:29:29.269Z,19.77
2019-03-25T04:31:57.697Z,19.57
2019-03-25T04:34:26.172Z,20.27
2019-03-25T04:36:54.615Z,21.20
2019-03-25T04:39:23.000Z,21.10
2019-03-25T04:41:51.561Z,21.13
2019-03-25T04:44:20.143Z,22.60
2019-03-25T04:46:48.555Z,21.23
2019-03-25T04:49:16.942Z,21.10
2019-03-25T04:51:45.483Z,21.63
2019-03-25T04:54:13.984Z,20.77
2019-03-25T04:56:42.529Z,21.30
2019-03-25T04:59:10.866Z,21.50
2019-03-25T05:01:39.315Z,21.20
2019-03-25T05:04:07.723Z,21.27
2019-03-25T05:06:36.279Z,23.13
2019-03-25T05:09:05.459Z,20.77
2019-03-25T05:11:33.995Z,22.10
2019-03-25T05:14:02.584Z,20.50
2019-03-25T05:16:31.018Z,19.23
2019-03-25T05:18:59.348Z,19.87
2019-03-25T05:21:27.842Z,19.13
2019-03-25T05:23:56.451Z,20.27
2019-03-25T05:26:24.802Z,19.50
2019-03-25T05:28:53.246Z,19.23
2019-03-25T05:31:21.684Z,19.53
2019-03-25T05:33:50.212Z,19.03
2019-03-25T05:36:18.717Z,20.03
2019-03-25T05:38:47.199Z,19.23
2019-03-25T05:41:15.732Z,19.37
2019-03-25T05:43:44.079Z,18.97
2019-03-25T05:46:12.894Z,19.43
2019-03-25T05:48:41.559Z,19.57
2019-03-25T05:51:10.002Z,18.10
2019-03-25T05:53:39.074Z,18.87
2019-03-25T05:56:07.523Z,20.23
2019-03-25T05:58:36.046Z,19.03
2019-03-25T06:01:04.690Z,20.43
2019-03-25T06:03:33.275Z,19.80
2019-03-25T06:06:01.734Z,19.63
2019-03-25T06:08:30.318Z,19.37
2019-03-25T06:10:59.012Z,20.50
2019-03-25T06:13:27.539Z,19.87
2019-03-25T06:15:56.057Z,20.20
2019-03-25T06:18:24.547Z,19.80
2019-03-25T06:20:53.053Z,20.70
2019-03-25T06:23:21.714Z,21.23
2019-03-25T06:25:50.116Z,23.33
2019-03-25T06:28:18.610Z,22.07
2019-03-25T06:30:47.002Z,24.80
2019-03-25T06:33:15.528Z,22.93
2019-03-25T06:35:44.009Z,24.67
2019-03-25T06:38:12.414Z,22.47
2019-03-25T06:40:40.915Z,28.60
2019-03-25T06:43:09.390Z,26.00
2019-03-25T06:45:44.165Z,26.53
2019-03-25T06:48:26.778Z,26.37
2019-03-25T06:50:55.287Z,23.83
2019-03-25T06:53:23.748Z,23.73
2019-03-25T06:56:06.669Z,25.47
2019-03-25T06:58:49.775Z,25.33
2019-03-25T07:01:18.339Z,26.43
2019-03-25T07:03:46.775Z,22.63
2019-03-25T07:06:15.234Z,23.10
2019-03-25T07:08:43.671Z,24.23
2019-03-25T07:11:15.678Z,24.60
2019-03-25T07:13:44.120Z,23.47
2019-03-25T07:16:12.655Z,25.03
2019-03-25T07:18:41.247Z,24.67
2019-03-25T07:21:09.920Z,25.67
2019-03-25T07:23:38.771Z,24.50
2019-03-25T07:26:07.296Z,22.80
2019-03-25T07:28:35.692Z,22.50
2019-03-25T07:31:04.262Z,24.43
2019-03-25T07:33:32.823Z,23.80
2019-03-25T07:36:01.354Z,26.87
2019-03-25T07:38:29.912Z,25.50
2019-03-25T07:40:58.875Z,25.40
2019-03-25T07:43:27.343Z,29.20
2019-03-25T07:45:55.776Z,26.50
2019-03-25T07:48:37.837Z,26.33
2019-03-25T07:51:58.187Z,24.87
2019-03-25T07:55:13.136Z,24.83
2019-03-25T07:58:25.782Z,24.67
2019-03-25T08:01:08.888Z,24.27
2019-03-25T08:03:53.050Z,24.20
2019-03-25T08:06:21.569Z,21.60
2019-03-25T08:08:50.074Z,27.97
2019-03-25T08:11:22.315Z,27.20
2019-03-25T08:13:50.937Z,29.03
2019-03-25T08:16:19.422Z,26.00
2019-03-25T08:18:47.972Z,24.37
2019-03-25T08:21:16.534Z,22.97
2019-03-25T08:23:45.035Z,23.50
2019-03-25T08:26:13.526Z,23.97
2019-03-25T08:28:42.237Z,26.00
2019-03-25T08:31:14.931Z,20.40
2019-03-25T08:34:16.050Z,23.63
2019-03-25T08:37:29.398Z,28.23
2019-03-25T08:39:56.307Z,28.03
2019-03-25T08:42:24.850Z,24.47
2019-03-25T08:44:53.370Z,26.50
2019-03-25T08:47:49.334Z,24.73
2019-03-25T08:50:46.349Z,22.10
2019-03-25T08:53:43.415Z,23.37
2019-03-25T08:56:39.848Z,27.60
2019-03-25T08:59:37.641Z,25.90
2019-03-25T09:02:34.243Z,21.53
2019-03-25T09:05:31.557Z,22.97
2019-03-25T09:08:28.543Z,23.73
2019-03-25T09:11:29.690Z,18.60
2019-03-25T09:14:27.353Z,23.53
2019-03-25T09:17:23.301Z,22.07
2019-03-25T09:20:20.375Z,21.60
2019-03-25T09:23:17.470Z,20.90
2019-03-25T09:26:16.209Z,18.63
2019-03-25T09:29:32.155Z,20.23
2019-03-25T09:32:12.721Z,24.17
2019-03-25T09:34:55.233Z,22.50
2019-03-25T09:37:23.681Z,19.97
2019-03-25T09:39:52.183Z,19.17
2019-03-25T09:42:34.729Z,19.30
2019-03-25T09:45:03.503Z,17.07
2019-03-25T09:47:46.222Z,21.00
2019-03-25T09:50:28.259Z,18.77
2019-03-25T09:53:11.066Z,18.20
2019-03-25T09:55:54.170Z,19.27
2019-03-25T09:58:36.157Z,19.20
2019-03-25T10:01:29.959Z,14.63
2019-03-25T10:04:42.454Z,14.97
2019-03-25T10:07:25.038Z,13.80
2019-03-25T10:09:53.788Z,12.80
2019-03-25T10:12:22.578Z,13.40
2019-03-25T10:15:17.120Z,14.03
2019-03-25T10:17:45.231Z,13.47
2019-03-25T10:20:14.248Z,10.57
2019-03-25T10:22:42.710Z,10.80
2019-03-25T10:25:11.863Z,9.50
2019-03-25T10:27:40.475Z,10.90
2019-03-25T10:30:10.359Z,12.93
2019-03-25T10:32:38.944Z,13.20
2019-03-25T10:35:07.852Z,11.48
2019-03-25T10:37:36.293Z,9.78
2019-03-25T10:40:05.486Z,12.28
2019-03-25T10:42:33.968Z,8.88
2019-03-25T10:45:02.484Z,9.10
2019-03-25T10:47:30.927Z,9.78
2019-03-25T10:49:59.438Z,9.40
2019-03-25T10:52:28.125Z,7.97
2019-03-25T10:57:24.925Z,10.35
2019-03-25T10:59:53.458Z,8.05
2019-03-25T11:02:21.940Z,7.58
2019-03-25T11:04:50.424Z,8.53
2019-03-25T11:07:18.995Z,7.87
2019-03-25T11:09:47.648Z,9.83
2019-03-25T11:12:16.060Z,7.28
2019-03-25T11:15:10.164Z,8.63
2019-03-25T11:17:38.514Z,9.88
2019-03-25T11:20:08.158Z,8.23
2019-03-25T11:22:36.687Z,6.20
2019-03-25T11:25:06.022Z,8.05
2019-03-25T11:27:34.587Z,5.67
2019-03-25T11:30:05.574Z,7.47
2019-03-25T11:32:33.869Z,7.33
2019-03-25T11:35:02.415Z,6.92
2019-03-25T11:37:33.456Z,7.67
2019-03-25T11:40:13.772Z,7.15
2019-03-25T11:42:52.399Z,5.55
2019-03-25T11:45:31.872Z,5.65
2019-03-25T11:48:09.984Z,5.85
2019-03-25T11:50:49.970Z,8.00
2019-03-25T11:53:27.067Z,4.42
2019-03-25T11:56:32.902Z,3.90
2019-03-25T11:59:18.651Z,6.67
2019-03-25T12:01:51.535Z,3.55
2019-03-25T12:04:30.171Z,4.03
2019-03-25T12:06:59.582Z,4.00
2019-03-25T12:09:41.594Z,5.33
2019-03-25T12:12:20.476Z,6.55
2019-03-25T12:15:19.193Z,5.40
2019-03-25T12:17:55.584Z,5.05
2019-03-25T12:20:37.128Z,5.30
2019-03-25T12:23:25.790Z,6.72
2019-03-25T12:25:54.413Z,6.53
2019-03-25T12:28:31.565Z,4.97
2019-03-25T12:31:08.362Z,5.83
2019-03-25T12:33:48.186Z,4.55
2019-03-25T12:36:26.530Z,5.33
2019-03-25T12:39:02.722Z,16.20
2019-03-25T12:41:37.050Z,19.20
2019-03-25T12:44:05.477Z,4.85
2019-03-25T12:46:34.098Z,5.40
2019-03-25T12:49:02.554Z,4.35
2019-03-25T12:51:31.533Z,7.92
2019-03-25T12:54:00.130Z,8.83
2019-03-25T12:56:28.490Z,6.47
2019-03-25T12:58:56.999Z,4.03
2019-03-25T13:01:25.548Z,18.27
2019-03-25T13:03:54.073Z,8.53
2019-03-25T13:06:22.558Z,5.08
2019-03-25T13:08:50.994Z,5.25
2019-03-25T13:11:22.662Z,10.08
2019-03-25T13:13:57.248Z,7.55
2019-03-25T13:16:50.925Z,7.10
2019-03-25T13:19:30.698Z,3.72
2019-03-25T13:22:22.917Z,4.85
2019-03-25T13:25:27.891Z,4.37
2019-03-25T13:28:31.169Z,9.48
2019-03-25T13:31:06.524Z,8.20
2019-03-25T13:33:40.885Z,9.20
2019-03-25T13:36:15.679Z,6.62
2019-03-25T13:38:51.735Z,11.33
2019-03-25T13:41:27.544Z,10.53
2019-03-25T13:44:03.911Z,6.58
2019-03-25T13:46:39.585Z,9.23
2019-03-25T13:49:15.468Z,6.85
2019-03-25T13:51:50.738Z,9.55
2019-03-25T13:54:27.127Z,6.78
2019-03-25T13:57:03.943Z,4.62
2019-03-25T13:59:46.214Z,6.28
2019-03-25T14:02:38.296Z,6.12
2019-03-25T14:05:27.857Z,8.35
2019-03-25T14:08:11.290Z,7.67
2019-03-25T14:11:06.550Z,4.03
2019-03-25T14:14:02.222Z,4.28
2019-03-25T14:17:14.757Z,6.20
2019-03-25T14:20:12.579Z,5.90
2019-03-25T14:23:07.671Z,8.55
2019-03-25T14:25:51.066Z,6.62
2019-03-25T14:28:40.714Z,7.75
2019-03-25T14:31:27.482Z,4.42
2019-03-25T14:34:03.545Z,5.08
2019-03-25T14:36:38.523Z,4.87
2019-03-25T14:39:07.126Z,6.85
2019-03-25T14:41:35.492Z,5.30
2019-03-25T14:44:04.188Z,5.15
2019-03-25T14:46:32.631Z,4.85
2019-03-25T14:49:01.339Z,6.62
2019-03-25T14:51:29.934Z,16.50
2019-03-25T14:53:58.517Z,4.47
2019-03-25T14:56:26.987Z,7.75
2019-03-25T14:58:55.586Z,6.58
2019-03-25T15:01:24.092Z,6.10
2019-03-25T15:03:52.566Z,5.70
2019-03-25T15:06:21.088Z,5.85
2019-03-25T15:08:49.706Z,8.80
2019-03-25T15:11:23.122Z,6.12
2019-03-25T15:13:51.662Z,3.45
2019-03-25T15:16:24.673Z,4.12
2019-03-25T15:18:53.155Z,7.30
2019-03-25T15:21:21.604Z,6.58
2019-03-25T15:23:50.128Z,4.72
2019-03-25T15:26:18.728Z,3.55
2019-03-25T15:28:47.211Z,7.05
2019-03-25T15:31:15.642Z,5.45
2019-03-25T15:33:44.194Z,4.08
2019-03-25T15:36:12.778Z,4.97
2019-03-25T15:38:41.591Z,4.28
2019-03-25T15:41:10.054Z,4.45
2019-03-25T15:43:38.708Z,6.17
2019-03-25T15:46:07.614Z,8.08
2019-03-25T15:48:57.998Z,5.35
2019-03-25T15:51:35.256Z,4.92
2019-03-25T15:54:03.890Z,4.15
2019-03-25T15:56:32.415Z,5.62
2019-03-25T15:59:02.935Z,4.55
2019-03-25T16:01:31.216Z,6.12
2019-03-25T16:04:00.094Z,5.85
2019-03-25T16:06:28.672Z,4.08
2019-03-25T16:08:57.163Z,5.03
2019-03-25T16:11:25.724Z,4.90
2019-03-25T16:13:54.191Z,6.78
2019-03-25T16:16:34.754Z,6.45
2019-03-25T16:19:03.340Z,5.80
2019-03-25T16:21:31.873Z,6.80
2019-03-25T16:24:08.440Z,5.73
2019-03-25T16:26:44.598Z,6.60
2019-03-25T16:29:20.666Z,3.60
2019-03-25T16:31:57.111Z,6.03
2019-03-25T16:34:32.350Z,6.97
2019-03-25T16:37:08.126Z,4.37
2019-03-25T16:39:44.469Z,5.00
2019-03-25T16:42:21.434Z,6.97
2019-03-25T16:44:57.451Z,5.07
2019-03-25T16:47:34.866Z,5.23
2019-03-25T16:50:11.280Z,5.23
2019-03-25T16:52:47.154Z,6.33
2019-03-25T16:55:23.310Z,5.27
2019-03-25T16:58:00.419Z,5.47
2019-03-25T17:00:36.817Z,5.47
2019-03-25T17:03:11.867Z,4.53
2019-03-25T17:05:48.498Z,5.10
2019-03-25T17:08:24.743Z,4.97
2019-03-25T17:10:59.431Z,4.07
2019-03-25T17:13:30.388Z,6.17
2019-03-25T17:16:42.656Z,4.40
2019-03-25T17:19:23.711Z,5.90
2019-03-25T17:22:06.311Z,4.53
2019-03-25T17:24:44.819Z,3.57
2019-03-25T17:27:27.037Z,6.33
2019-03-25T17:30:08.864Z,5.70
2019-03-25T17:32:46.970Z,8.43
2019-03-25T17:35:23.191Z,5.40
2019-03-25T17:37:52.154Z,6.63
2019-03-25T17:40:21.253Z,7.17
2019-03-25T17:42:49.721Z,14.97
2019-03-25T17:45:19.609Z,14.20
2019-03-25T17:47:48.118Z,8.83
2019-03-25T17:50:16.655Z,7.33
2019-03-25T17:52:45.720Z,7.97
2019-03-25T17:55:14.323Z,14.70
2019-03-25T17:57:42.712Z,9.33
2019-03-25T18:00:12.074Z,37.20
2019-03-25T18:02:40.535Z,25.27
2019-03-25T18:05:09.418Z,12.93
2019-03-25T18:07:37.912Z,11.27
2019-03-25T18:10:06.853Z,18.73
2019-03-25T18:12:39.007Z,16.17
2019-03-25T18:15:49.459Z,17.77
2019-03-25T18:18:16.285Z,16.17
2019-03-25T18:20:44.739Z,14.17
2019-03-25T18:23:13.239Z,14.73
2019-03-25T18:25:41.830Z,14.73
2019-03-25T18:28:10.295Z,18.37
2019-03-25T18:30:38.821Z,14.10
2019-03-25T18:33:07.458Z,11.90
2019-03-25T18:35:57.677Z,12.50
2019-03-25T18:38:26.433Z,12.23
2019-03-25T18:40:55.004Z,9.90
2019-03-25T18:43:23.606Z,9.50
2019-03-25T18:45:52.319Z,14.77
2019-03-25T18:48:20.895Z,13.20
2019-03-25T18:50:49.374Z,11.50
2019-03-25T18:53:17.864Z,18.27
2019-03-25T18:55:46.423Z,20.23
2019-03-25T18:58:15.033Z,14.87
2019-03-25T19:00:43.530Z,12.23
2019-03-25T19:03:12.148Z,10.73
2019-03-25T19:05:40.657Z,9.67
2019-03-25T19:08:09.348Z,12.63
2019-03-25T19:10:37.946Z,12.80
2019-03-25T19:13:07.650Z,13.60
2019-03-25T19:16:30.610Z,11.83
2019-03-25T19:18:56.773Z,8.73
2019-03-25T19:21:25.286Z,11.50
2019-03-25T19:23:53.872Z,16.73
2019-03-25T19:26:22.462Z,19.43
2019-03-25T19:28:50.993Z,17.73
2019-03-25T19:31:19.650Z,15.17
2019-03-25T19:33:48.041Z,12.77
2019-03-25T19:36:16.491Z,10.87
2019-03-25T19:38:45.116Z,23.90
2019-03-25T19:41:13.643Z,15.00
2019-03-25T19:43:42.608Z,14.47
2019-03-25T19:46:11.946Z,8.20
2019-03-25T19:48:41.082Z,5.53
2019-03-25T19:51:09.667Z,7.87
2019-03-25T19:53:38.293Z,9.53
2019-03-25T19:56:06.904Z,11.23
2019-03-25T19:58:35.403Z,7.60
2019-03-25T20:01:03.880Z,5.13
2019-03-25T20:03:33.118Z,7.07
2019-03-25T20:06:01.781Z,7.20
2019-03-25T20:08:30.653Z,8.80
2019-03-25T20:10:59.231Z,8.00
2019-03-25T20:13:27.763Z,4.83
2019-03-25T20:16:27.388Z,5.07
2019-03-25T20:18:55.245Z,6.40
2019-03-25T20:21:23.853Z,5.30
2019-03-25T20:23:52.285Z,11.63
2019-03-25T20:26:20.810Z,13.40
2019-03-25T20:28:49.439Z,13.97
2019-03-25T20:31:17.958Z,44.53
2019-03-25T20:33:46.399Z,34.90
2019-03-25T20:36:14.902Z,23.10
2019-03-25T20:38:49.171Z,14.77
2019-03-25T20:41:14.184Z,17.20
2019-03-25T20:43:43.095Z,13.73
2019-03-25T20:46:11.565Z,12.10
2019-03-25T20:48:40.784Z,8.13
2019-03-25T20:51:09.301Z,6.27
2019-03-25T20:53:37.853Z,5.43
2019-03-25T20:56:06.581Z,6.90
2019-03-25T20:58:35.212Z,6.60
2019-03-25T21:01:03.881Z,8.03
2019-03-25T21:03:32.392Z,9.63
2019-03-25T21:06:00.970Z,8.83
2019-03-25T21:08:29.543Z,8.07
2019-03-25T21:10:57.981Z,8.40
2019-03-25T21:13:26.454Z,8.20
2019-03-25T21:16:37.308Z,7.70
2019-03-25T21:19:04.035Z,6.23
2019-03-25T21:21:32.565Z,5.47
2019-03-25T21:24:01.139Z,6.80
2019-03-25T21:27:08.470Z,6.13
2019-03-25T21:29:35.522Z,6.50
2019-03-25T21:32:04.214Z,5.43
2019-03-25T21:34:32.743Z,4.43
2019-03-25T21:37:01.572Z,6.20
2019-03-25T21:39:30.078Z,7.70
2019-03-25T21:41:58.525Z,6.73
2019-03-25T21:44:27.056Z,7.47
2019-03-25T21:46:55.655Z,5.83
2019-03-25T21:49:24.043Z,6.47
2019-03-25T21:51:52.600Z,7.00
2019-03-25T21:54:21.127Z,6.47
2019-03-25T21:56:49.741Z,10.13
2019-03-25T21:59:18.250Z,11.97
2019-03-25T22:01:46.758Z,10.33
2019-03-25T22:04:15.745Z,9.47
2019-03-25T22:06:44.363Z,6.37
2019-03-25T22:09:13.131Z,8.17
2019-03-25T22:11:41.635Z,7.40
2019-03-25T22:14:12.637Z,7.97
2019-03-25T22:16:48.770Z,7.80
2019-03-25T22:19:17.474Z,6.30
2019-03-25T22:21:46.095Z,8.80
2019-03-25T22:24:15.160Z,7.07
2019-03-25T22:26:44.324Z,6.13
2019-03-25T22:29:13.159Z,7.70
2019-03-25T22:31:42.352Z,7.90
2019-03-25T22:34:11.145Z,9.80
2019-03-25T22:36:39.740Z,6.37
2019-03-25T22:39:08.523Z,7.33
2019-03-25T22:41:37.051Z,6.87
2019-03-25T22:44:07.848Z,13.10
2019-03-25T22:46:36.315Z,10.53
2019-03-25T22:49:05.018Z,8.20
2019-03-25T22:51:33.534Z,11.50
2019-03-25T22:54:01.955Z,10.07
2019-03-25T22:56:30.632Z,7.83
2019-03-25T22:58:59.143Z,9.10
2019-03-25T23:01:27.924Z,6.87
2019-03-25T23:03:56.492Z,10.10
2019-03-25T23:06:24.915Z,8.40
2019-03-25T23:08:53.340Z,9.17
2019-03-25T23:11:22.758Z,7.97
2019-03-25T23:13:51.334Z,7.20
2019-03-25T23:16:19.943Z,6.77
2019-03-25T23:19:18.169Z,9.63
2019-03-25T23:21:46.482Z,7.20
2019-03-25T23:24:14.935Z,10.13
2019-03-25T23:26:43.442Z,7.93
2019-03-25T23:29:11.939Z,9.17
2019-03-25T23:31:40.566Z,13.17
2019-03-25T23:34:09.030Z,7.37
2019-03-25T23:36:37.490Z,12.13
2019-03-25T23:39:07.083Z,15.93
2019-03-25T23:41:35.470Z,14.87
2019-03-25T23:44:03.971Z,24.40
2019-03-25T23:46:32.439Z,27.60
2019-03-25T23:49:02.186Z,23.33
2019-03-25T23:51:30.586Z,26.93
2019-03-25T23:54:14.991Z,25.50
2019-03-25T23:56:43.466Z,19.40
2019-03-25T23:59:12.232Z,16.50
